createdAt,value
2018-03-01T00:00:19.025Z,100454.24
2018-03-01T00:02:47.589Z,100456.29
2018-03-01T00:05:16.214Z,100451.09
2018-03-01T00:07:45.593Z,100454.13
2018-03-01T00:10:14.161Z,100451.58
2018-03-01T00:12:42.840Z,100454.09
2018-03-01T00:15:11.624Z,100461.97
2018-03-01T00:17:40.180Z,100466.73
2018-03-01T00:20:08.743Z,100465.02
2018-03-01T00:22:38.163Z,100467.02
2018-03-01T00:25:06.727Z,100456.95
2018-03-01T00:27:36.053Z,100452.69
2018-03-01T00:30:04.821Z,100469.84
2018-03-01T00:32:33.385Z,100477.52
2018-03-01T00:35:02.717Z,100477.28
2018-03-01T00:37:31.319Z,100474.53
2018-03-01T00:39:59.873Z,100467.37
2018-03-01T00:42:28.436Z,100469.22
2018-03-01T00:44:57.933Z,100462.51
2018-03-01T00:47:26.492Z,100466.55
2018-03-01T00:49:55.057Z,100461.14
2018-03-01T00:52:23.656Z,100460.39
2018-03-01T00:54:52.217Z,100456.52
2018-03-01T00:57:20.776Z,100451.54
2018-03-01T00:59:49.600Z,100457.61
2018-03-01T01:02:18.157Z,100464.92
2018-03-01T01:04:46.716Z,100471.77
2018-03-01T01:07:16.085Z,100470.06
2018-03-01T01:09:44.652Z,100472.15
2018-03-01T01:12:13.209Z,100466.97
2018-03-01T01:14:41.828Z,100475.20
2018-03-01T01:17:10.388Z,100481.55
2018-03-01T01:19:38.952Z,100479.59
2018-03-01T01:22:07.579Z,100483.03
2018-03-01T01:24:36.136Z,100484.35
2018-03-01T01:27:04.698Z,100478.33
2018-03-01T01:29:34.068Z,100486.09
2018-03-01T01:32:02.632Z,100484.59
2018-03-01T01:34:31.179Z,100484.55
2018-03-01T01:36:59.999Z,100480.53
2018-03-01T01:39:28.564Z,100483.10
2018-03-01T01:41:58.151Z,100484.37
2018-03-01T01:44:26.801Z,100498.27
2018-03-01T01:46:55.373Z,100500.06
2018-03-01T01:49:23.943Z,100498.45
2018-03-01T01:51:52.838Z,100504.73
2018-03-01T01:54:21.403Z,100503.92
2018-03-01T01:56:49.964Z,100509.38
2018-03-01T01:59:18.579Z,100503.61
2018-03-01T02:01:47.140Z,100504.15
2018-03-01T02:04:15.696Z,100498.05
2018-03-01T02:06:45.353Z,100502.94
2018-03-01T02:09:13.916Z,100501.48
2018-03-01T02:11:42.487Z,100499.84
2018-03-01T02:14:11.318Z,100495.13
2018-03-01T02:16:39.894Z,100497.00
2018-03-01T02:19:08.460Z,100486.66
2018-03-01T02:21:37.576Z,100497.86
2018-03-01T02:24:06.137Z,100496.91
2018-03-01T02:26:34.697Z,100494.67
2018-03-01T02:29:03.305Z,100498.23
2018-03-01T02:31:31.871Z,100506.28
2018-03-01T02:34:00.437Z,100508.28
2018-03-01T02:36:34.914Z,100511.13
2018-03-01T02:39:03.536Z,100507.38
2018-03-01T02:41:32.869Z,100508.63
2018-03-01T02:44:01.493Z,100506.09
2018-03-01T02:46:30.373Z,100492.36
2018-03-01T02:48:58.937Z,100508.81
2018-03-01T02:51:27.645Z,100509.79
2018-03-01T02:53:56.209Z,100512.68
2018-03-01T02:56:24.777Z,100511.52
2018-03-01T02:58:53.599Z,100506.11
2018-03-01T03:01:22.181Z,100505.27
2018-03-01T03:03:50.741Z,100515.33
2018-03-01T03:06:19.352Z,100508.52
2018-03-01T03:08:47.921Z,100512.86
2018-03-01T03:11:16.476Z,100520.42
2018-03-01T03:13:45.089Z,100525.27
2018-03-01T03:16:13.665Z,100522.80
2018-03-01T03:18:42.244Z,100516.34
2018-03-01T03:21:10.925Z,100517.59
2018-03-01T03:23:39.484Z,100520.28
2018-03-01T03:26:08.816Z,100530.75
2018-03-01T03:28:37.432Z,100534.20
2018-03-01T03:31:06.010Z,100526.60
2018-03-01T03:33:34.581Z,100542.25
2018-03-01T03:36:03.193Z,100545.09
2018-03-01T03:38:31.761Z,100550.47
2018-03-01T03:41:00.335Z,100546.34
2018-03-01T03:43:29.046Z,100544.59
2018-03-01T03:45:57.613Z,100540.39
2018-03-01T03:48:26.181Z,100527.87
2018-03-01T03:50:54.970Z,100526.02
2018-03-01T03:53:23.540Z,100522.60
2018-03-01T03:55:52.104Z,100519.04
2018-03-01T03:58:20.732Z,100520.81
2018-03-01T04:00:49.296Z,100518.70
2018-03-01T04:03:17.856Z,100517.56
2018-03-01T04:05:46.478Z,100532.92
2018-03-01T04:08:15.040Z,100532.95
2018-03-01T04:10:43.605Z,100536.95
2018-03-01T04:13:12.542Z,100544.86
2018-03-01T04:15:41.117Z,100556.30
2018-03-01T04:18:10.451Z,100555.66
2018-03-01T04:20:39.213Z,100568.13
2018-03-01T04:23:07.792Z,100566.27
2018-03-01T04:25:36.407Z,100573.88
2018-03-01T04:28:05.021Z,100568.27
2018-03-01T04:30:33.593Z,100566.84
2018-03-01T04:33:02.169Z,100561.22
2018-03-01T04:35:30.785Z,100554.09
2018-03-01T04:37:59.360Z,100549.72
2018-03-01T04:40:27.932Z,100546.48
2018-03-01T04:42:56.610Z,100552.13
2018-03-01T04:45:25.047Z,100552.31
2018-03-01T04:47:54.255Z,100559.04
2018-03-01T04:50:23.601Z,100562.67
2018-03-01T04:52:52.054Z,100572.89
2018-03-01T04:55:20.493Z,100577.41
2018-03-01T04:57:48.970Z,100574.09
2018-03-01T05:00:17.407Z,100574.14
2018-03-01T05:02:45.845Z,100565.61
2018-03-01T05:05:14.799Z,100559.80
2018-03-01T05:07:43.368Z,100562.53
2018-03-01T05:10:11.928Z,100564.38
2018-03-01T05:12:40.549Z,100566.26
2018-03-01T05:15:09.116Z,100570.62
2018-03-01T05:17:37.681Z,100578.48
2018-03-01T05:20:06.403Z,100579.19
2018-03-01T05:22:34.974Z,100583.16
2018-03-01T05:25:03.540Z,100591.21
2018-03-01T05:27:32.328Z,100598.20
2018-03-01T05:30:02.277Z,100589.05
2018-03-01T05:32:31.370Z,100581.97
2018-03-01T05:34:59.984Z,100581.55
2018-03-01T05:37:31.240Z,100599.18
2018-03-01T05:40:01.089Z,100598.30
2018-03-01T05:42:29.653Z,100605.73
2018-03-01T05:44:59.307Z,100546.34
2018-03-01T05:47:28.881Z,100597.90
2018-03-01T05:49:58.625Z,100594.99
2018-03-01T05:52:27.264Z,100584.50
2018-03-01T05:54:56.089Z,100578.06
2018-03-01T05:57:24.652Z,100588.63
2018-03-01T05:59:53.223Z,100594.76
2018-03-01T06:02:22.004Z,100607.50
2018-03-01T06:04:50.566Z,100612.42
2018-03-01T06:07:19.132Z,100611.47
2018-03-01T06:09:47.741Z,100604.64
2018-03-01T06:12:17.072Z,100604.13
2018-03-01T06:14:45.632Z,100610.13
2018-03-01T06:17:15.116Z,100616.05
2018-03-01T06:19:43.676Z,100619.58
2018-03-01T06:22:12.258Z,100608.03
2018-03-01T06:24:40.970Z,100612.08
2018-03-01T06:27:10.341Z,100606.41
2018-03-01T06:29:38.904Z,100606.52
2018-03-01T06:34:43.166Z,100603.98
2018-03-01T06:37:12.633Z,100600.27
2018-03-01T06:39:41.201Z,100606.29
2018-03-01T06:42:09.764Z,100606.97
2018-03-01T06:44:39.651Z,100603.13
2018-03-01T06:47:08.337Z,100610.01
2018-03-01T06:49:37.022Z,100605.95
2018-03-01T06:52:05.905Z,100605.95
2018-03-01T06:54:34.540Z,100602.73
2018-03-01T06:57:03.278Z,100593.98
2018-03-01T06:59:32.076Z,100598.56
2018-03-01T07:02:01.541Z,100584.82
2018-03-01T07:04:30.510Z,100585.41
2018-03-01T07:06:59.218Z,100583.96
2018-03-01T07:09:27.871Z,100588.48
2018-03-01T07:11:56.735Z,100600.77
2018-03-01T07:14:26.200Z,100599.59
2018-03-01T07:16:54.808Z,100592.77
2018-03-01T07:19:24.566Z,100588.38
2018-03-01T07:21:53.275Z,100582.59
2018-03-01T07:24:21.832Z,100589.83
2018-03-01T07:26:50.793Z,100595.08
2018-03-01T07:29:20.254Z,100580.17
2018-03-01T07:31:48.840Z,100577.38
2018-03-01T07:34:17.897Z,100583.66
2018-03-01T07:36:46.564Z,100582.58
2018-03-01T07:39:16.029Z,100565.48
2018-03-01T07:41:45.200Z,100559.06
2018-03-01T07:44:13.905Z,100556.61
2018-03-01T07:46:42.597Z,100549.69
2018-03-01T07:49:11.324Z,100553.27
2018-03-01T07:51:40.786Z,100559.79
2018-03-01T07:54:09.413Z,100555.06
2018-03-01T07:56:38.877Z,100556.59
2018-03-01T07:59:07.560Z,100558.75
2018-03-01T08:01:36.190Z,100557.12
2018-03-01T08:04:06.009Z,100554.59
2018-03-01T08:06:34.745Z,100558.53
2018-03-01T08:09:03.443Z,100572.78
2018-03-01T08:11:33.709Z,100570.90
2018-03-01T08:14:02.337Z,100555.81
2018-03-01T08:16:30.924Z,100561.10
2018-03-01T08:18:59.611Z,100569.98
2018-03-01T08:21:28.296Z,100568.95
2018-03-01T08:23:56.919Z,100568.97
2018-03-01T08:26:27.369Z,100560.05
2018-03-01T08:28:56.087Z,100552.94
2018-03-01T08:31:24.776Z,100560.25
2018-03-01T08:33:53.767Z,100547.16
2018-03-01T08:36:22.411Z,100544.92
2018-03-01T08:38:51.139Z,100530.75
2018-03-01T08:41:19.934Z,100521.50
2018-03-01T08:43:48.513Z,100527.89
2018-03-01T08:46:17.096Z,100540.80
2018-03-01T08:48:45.834Z,100540.05
2018-03-01T08:51:14.517Z,100535.50
2018-03-01T08:53:43.976Z,100530.97
2018-03-01T08:56:12.659Z,100514.09
2018-03-01T08:58:41.349Z,100519.01
2018-03-01T09:01:10.035Z,100519.64
2018-03-01T09:03:38.919Z,100520.72
2018-03-01T09:06:07.605Z,100517.27
2018-03-01T09:08:36.240Z,100526.55
2018-03-01T09:11:05.860Z,100515.20
2018-03-01T09:13:34.584Z,100516.84
2018-03-01T09:16:03.271Z,100514.94
2018-03-01T09:18:32.068Z,100500.64
2018-03-01T09:21:00.750Z,100496.86
2018-03-01T09:23:29.391Z,100498.92
2018-03-01T09:25:58.320Z,100494.85
2018-03-01T09:28:26.955Z,100499.60
2018-03-01T09:30:56.422Z,100511.11
2018-03-01T09:33:25.189Z,100494.70
2018-03-01T09:35:53.887Z,100492.89
2018-03-01T09:38:22.527Z,100512.56
2018-03-01T09:40:51.873Z,100510.06
2018-03-01T09:43:20.510Z,100492.77
2018-03-01T09:45:49.956Z,100505.05
2018-03-01T09:48:18.951Z,100491.77
2018-03-01T09:50:47.588Z,100456.07
2018-03-01T09:53:17.046Z,100474.64
2018-03-01T09:55:45.832Z,100457.84
2018-03-01T09:58:14.518Z,100444.22
2018-03-01T10:00:43.302Z,100460.87
2018-03-01T10:03:12.126Z,100471.02
2018-03-01T10:05:41.496Z,100459.34
2018-03-01T10:08:11.783Z,100448.59
2018-03-01T10:10:40.432Z,100440.20
2018-03-01T10:13:09.158Z,100435.94
2018-03-01T10:15:37.950Z,100444.27
2018-03-01T10:18:06.636Z,100446.86
2018-03-01T10:20:35.321Z,100434.45
2018-03-01T10:23:04.107Z,100422.75
2018-03-01T10:25:32.793Z,100419.45
2018-03-01T10:28:02.303Z,100424.40
2018-03-01T10:30:31.185Z,100408.46
2018-03-01T10:32:59.876Z,100408.79
2018-03-01T10:35:28.556Z,100411.00
2018-03-01T10:37:57.451Z,100385.36
2018-03-01T10:40:26.138Z,100383.70
2018-03-01T10:42:54.824Z,100389.19
2018-03-01T10:45:23.696Z,100390.64
2018-03-01T10:47:52.339Z,100371.69
2018-03-01T10:50:21.803Z,100372.41
2018-03-01T10:52:50.752Z,100363.37
2018-03-01T10:55:19.481Z,100363.30
2018-03-01T10:57:48.934Z,100355.01
2018-03-01T11:03:21.789Z,100337.48
2018-03-01T11:05:50.781Z,100331.02
2018-03-01T11:08:19.468Z,100333.33
2018-03-01T11:10:48.054Z,100332.66
2018-03-01T11:13:17.027Z,100321.80
2018-03-01T11:15:47.240Z,100328.64
2018-03-01T11:18:15.915Z,100318.95
2018-03-01T11:20:44.612Z,100307.35
2018-03-01T11:23:13.396Z,100307.57
2018-03-01T11:25:42.071Z,100297.29
2018-03-01T11:28:11.015Z,100303.50
2018-03-01T11:30:40.474Z,100301.84
2018-03-01T11:33:09.159Z,100299.41
2018-03-01T11:35:38.054Z,100311.87
2018-03-01T11:38:06.640Z,100318.73
2018-03-01T11:40:35.217Z,100311.80
2018-03-01T11:43:03.968Z,100325.41
2018-03-01T11:45:32.635Z,100320.45
2018-03-01T11:48:02.098Z,100314.67
2018-03-01T11:50:30.882Z,100298.96
2018-03-01T11:52:59.570Z,100291.47
2018-03-01T11:55:28.153Z,100284.70
2018-03-01T11:57:56.853Z,100281.33
2018-03-01T12:00:25.545Z,100269.52
2018-03-01T12:02:54.246Z,100272.73
2018-03-01T12:05:23.081Z,100273.75
2018-03-01T12:07:51.716Z,100268.30
2018-03-01T12:10:20.297Z,100254.86
2018-03-01T12:12:49.458Z,100253.92
2018-03-01T12:15:18.126Z,100250.60
2018-03-01T12:17:47.592Z,100249.18
2018-03-01T12:20:16.378Z,100248.75
2018-03-01T12:22:45.061Z,100251.27
2018-03-01T12:25:13.748Z,100242.34
2018-03-01T12:27:42.436Z,100241.14
2018-03-01T12:30:11.107Z,100237.95
2018-03-01T12:32:39.804Z,100248.41
2018-03-01T12:35:08.491Z,100242.41
2018-03-01T12:37:37.915Z,100241.88
2018-03-01T12:40:07.248Z,100245.61
2018-03-01T12:42:35.944Z,100222.02
2018-03-01T12:45:04.626Z,100207.67
2018-03-01T12:47:33.312Z,100213.47
2018-03-01T12:50:02.004Z,100211.39
2018-03-01T12:52:30.739Z,100200.00
2018-03-01T12:55:00.193Z,100205.44
2018-03-01T12:57:28.877Z,100194.72
2018-03-01T12:59:57.621Z,100192.52
2018-03-01T13:02:26.348Z,100194.05
2018-03-01T13:04:55.961Z,100188.83
2018-03-01T13:07:24.542Z,100188.63
2018-03-01T13:09:53.244Z,100184.08
2018-03-01T13:12:21.919Z,100185.39
2018-03-01T13:14:50.600Z,100185.89
2018-03-01T13:17:19.345Z,100192.97
2018-03-01T13:19:48.538Z,100176.84
2018-03-01T13:22:17.985Z,100180.65
2018-03-01T13:24:46.673Z,100176.89
2018-03-01T13:27:15.413Z,100170.47
2018-03-01T13:29:44.910Z,100173.89
2018-03-01T13:32:14.474Z,100161.88
2018-03-01T13:34:47.530Z,100163.52
2018-03-01T13:37:16.244Z,100164.80
2018-03-01T13:39:44.977Z,100171.48
2018-03-01T13:42:18.499Z,100167.73
2018-03-01T13:44:47.241Z,100167.63
2018-03-01T13:47:15.866Z,100167.79
2018-03-01T13:49:44.650Z,100171.02
2018-03-01T13:52:13.445Z,100168.44
2018-03-01T13:54:42.230Z,100165.70
2018-03-01T13:57:11.061Z,100168.23
2018-03-01T13:59:40.425Z,100173.73
2018-03-01T14:02:09.212Z,100169.43
2018-03-01T14:04:38.300Z,100164.69
2018-03-01T14:07:12.472Z,100154.69
2018-03-01T14:09:41.216Z,100151.11
2018-03-01T14:12:20.587Z,100152.48
2018-03-01T14:14:50.055Z,100139.02
2018-03-01T14:17:20.887Z,100150.44
2018-03-01T14:20:01.554Z,100146.89
2018-03-01T14:22:35.710Z,100154.34
2018-03-01T14:25:06.604Z,100162.19
2018-03-01T14:27:36.943Z,100162.50
2018-03-01T14:30:12.161Z,100159.13
2018-03-01T14:32:40.828Z,100166.58
2018-03-01T14:35:09.549Z,100166.42
2018-03-01T14:37:38.266Z,100167.73
2018-03-01T14:40:07.601Z,100159.86
2018-03-01T14:42:36.270Z,100164.02
2018-03-01T14:45:05.025Z,100164.39
2018-03-01T14:47:33.748Z,100163.51
2018-03-01T14:50:02.427Z,100171.82
2018-03-01T14:52:31.221Z,100182.23
2018-03-01T14:54:59.888Z,100185.69
2018-03-01T14:57:29.352Z,100186.20
2018-03-01T14:59:58.423Z,100171.22
2018-03-01T15:02:27.129Z,100167.02
2018-03-01T15:04:55.815Z,100166.28
2018-03-01T15:07:24.425Z,100169.05
2018-03-01T15:09:53.186Z,100164.16
2018-03-01T15:12:21.861Z,100163.45
2018-03-01T15:14:50.656Z,100149.59
2018-03-01T15:17:19.296Z,100141.47
2018-03-01T15:19:48.028Z,100137.66
2018-03-01T15:22:16.824Z,100131.78
2018-03-01T15:24:45.510Z,100133.23
2018-03-01T15:27:14.197Z,100124.60
2018-03-01T15:29:43.037Z,100124.27
2018-03-01T15:32:11.765Z,100122.70
2018-03-01T15:34:40.421Z,100127.72
2018-03-01T15:37:09.246Z,100134.72
2018-03-01T15:39:37.879Z,100132.81
2018-03-01T15:42:07.327Z,100110.85
2018-03-01T15:44:36.067Z,100110.75
2018-03-01T15:47:04.802Z,100125.42
2018-03-01T15:49:33.452Z,100123.60
2018-03-01T15:52:02.444Z,100125.88
2018-03-01T15:54:31.167Z,100124.19
2018-03-01T15:56:59.805Z,100125.97
2018-03-01T15:59:28.498Z,100121.57
2018-03-01T16:01:57.225Z,100129.05
2018-03-01T16:04:25.930Z,100132.29
2018-03-01T16:06:55.513Z,100135.95
2018-03-01T16:09:24.167Z,100131.34
2018-03-01T16:11:52.894Z,100138.84
2018-03-01T16:14:21.887Z,100147.77
2018-03-01T16:16:50.573Z,100145.50
2018-03-01T16:19:19.259Z,100156.60
2018-03-01T16:21:47.945Z,100155.19
2018-03-01T16:24:16.624Z,100154.84
2018-03-01T16:26:45.317Z,100160.41
2018-03-01T16:29:14.100Z,100161.80
2018-03-01T16:31:42.688Z,100166.14
2018-03-01T16:34:11.369Z,100171.03
2018-03-01T16:36:41.126Z,100168.16
2018-03-01T16:39:09.754Z,100169.01
2018-03-01T16:41:39.171Z,100158.65
2018-03-01T16:44:07.896Z,100149.48
2018-03-01T16:46:36.599Z,100156.23
2018-03-01T16:49:05.372Z,100145.13
2018-03-01T16:51:34.236Z,100137.03
2018-03-01T16:54:02.935Z,100132.00
2018-03-01T16:56:33.077Z,100129.17
2018-03-01T16:59:01.874Z,100136.19
2018-03-01T17:01:30.431Z,100137.40
2018-03-01T17:03:59.896Z,100149.00
2018-03-01T17:06:28.691Z,100136.05
2018-03-01T17:08:57.361Z,100133.32
2018-03-01T17:11:26.004Z,100122.37
2018-03-01T17:13:55.476Z,100113.95
2018-03-01T17:16:24.148Z,100110.40
2018-03-01T17:18:52.834Z,100110.88
2018-03-01T17:21:21.725Z,100121.48
2018-03-01T17:23:50.413Z,100130.44
2018-03-01T17:26:18.994Z,100133.25
2018-03-01T17:28:47.889Z,100132.84
2018-03-01T17:31:17.326Z,100128.33
2018-03-01T17:33:46.014Z,100123.37
2018-03-01T17:36:14.834Z,100119.94
2018-03-01T17:38:44.297Z,100121.73
2018-03-01T17:41:12.993Z,100122.75
2018-03-01T17:43:41.877Z,100126.95
2018-03-01T17:46:10.563Z,100121.94
2018-03-01T17:48:39.199Z,100120.41
2018-03-01T17:51:08.814Z,100122.83
2018-03-01T17:53:37.509Z,100116.30
2018-03-01T17:56:06.097Z,100106.41
2018-03-01T17:58:34.777Z,100101.06
2018-03-01T18:01:03.341Z,100102.35
2018-03-01T18:03:32.002Z,100087.42
2018-03-01T18:06:00.731Z,100078.73
2018-03-01T18:08:29.284Z,100074.80
2018-03-01T18:10:58.004Z,100078.09
2018-03-01T18:13:26.997Z,100069.80
2018-03-01T18:15:55.577Z,100061.66
2018-03-01T18:18:24.269Z,100064.19
2018-03-01T18:20:53.213Z,100072.91
2018-03-01T18:23:21.950Z,100075.25
2018-03-01T18:25:50.525Z,100087.17
2018-03-01T18:28:19.600Z,100076.23
2018-03-01T18:30:48.313Z,100076.19
2018-03-01T18:33:16.895Z,100080.07
2018-03-01T18:35:45.628Z,100079.16
2018-03-01T18:38:14.949Z,100075.34
2018-03-01T18:40:43.614Z,100072.69
2018-03-01T18:43:18.885Z,100067.91
2018-03-01T18:45:47.593Z,100066.73
2018-03-01T18:48:16.277Z,100067.02
2018-03-01T18:50:45.109Z,100061.73
2018-03-01T18:53:14.580Z,100066.35
2018-03-01T18:55:43.273Z,100049.14
2018-03-01T18:58:11.998Z,100048.80
2018-03-01T19:00:40.729Z,100050.61
2018-03-01T19:03:09.414Z,100044.46
2018-03-01T19:05:38.209Z,100037.46
2018-03-01T19:08:06.834Z,100020.03
2018-03-01T19:10:36.295Z,100018.94
2018-03-01T19:13:05.188Z,100012.60
2018-03-01T19:15:33.747Z,100018.95
2018-03-01T19:18:02.451Z,100012.02
2018-03-01T19:20:31.246Z,100023.45
2018-03-01T19:22:59.889Z,100022.95
2018-03-01T19:25:28.617Z,100031.31
2018-03-01T19:27:57.809Z,100014.84
2018-03-01T19:30:26.498Z,100015.41
2018-03-01T19:32:55.084Z,100024.48
2018-03-01T19:35:23.866Z,100011.92
2018-03-01T19:37:52.499Z,100007.83
2018-03-01T19:40:21.961Z,100014.81
2018-03-01T19:42:50.648Z,100005.41
2018-03-01T19:45:19.224Z,100017.84
2018-03-01T19:47:47.910Z,100020.81
2018-03-01T19:50:16.705Z,100027.33
2018-03-01T19:52:45.285Z,100031.19
2018-03-01T19:55:13.968Z,100042.66
2018-03-01T19:57:42.941Z,100037.84
2018-03-01T20:00:11.650Z,100024.13
2018-03-01T20:02:40.336Z,100018.61
2018-03-01T20:05:09.127Z,100012.98
2018-03-01T20:07:37.813Z,100005.66
2018-03-01T20:10:06.451Z,99999.75
2018-03-01T20:12:36.001Z,100001.00
2018-03-01T20:15:04.802Z,100004.41
2018-03-01T20:17:34.257Z,100001.42
2018-03-01T20:20:03.346Z,99993.86
2018-03-01T20:22:32.081Z,100001.47
2018-03-01T20:25:00.764Z,99999.80
2018-03-01T20:27:29.649Z,99994.06
2018-03-01T20:29:58.386Z,100003.59
2018-03-01T20:32:27.843Z,100004.85
2018-03-01T20:34:56.580Z,100000.37
2018-03-01T20:37:26.199Z,100003.59
2018-03-01T20:39:54.735Z,99998.71
2018-03-01T20:42:23.509Z,99986.33
2018-03-01T20:44:52.296Z,99982.19
2018-03-01T20:47:21.848Z,99982.59
2018-03-01T20:49:51.301Z,99980.52
2018-03-01T20:52:20.006Z,99969.27
2018-03-01T20:54:48.570Z,99958.87
2018-03-01T20:57:17.361Z,99971.75
2018-03-01T20:59:46.064Z,99960.88
2018-03-01T21:02:14.839Z,99946.75
2018-03-01T21:04:43.989Z,99954.17
2018-03-01T21:07:13.302Z,99951.45
2018-03-01T21:09:42.025Z,99941.34
2018-03-01T21:12:11.117Z,99947.39
2018-03-01T21:14:39.806Z,99946.00
2018-03-01T21:17:08.431Z,99946.56
2018-03-01T21:19:38.174Z,99948.20
2018-03-01T21:22:06.882Z,99945.89
2018-03-01T21:24:35.468Z,99937.03
2018-03-01T21:27:04.254Z,99933.07
2018-03-01T21:29:32.940Z,99926.30
2018-03-01T21:32:01.587Z,99921.45
2018-03-01T21:34:30.269Z,99920.80
2018-03-01T21:36:59.820Z,99911.41
2018-03-01T21:39:28.412Z,99916.11
2018-03-01T21:41:57.185Z,99911.90
2018-03-01T21:44:25.975Z,99908.40
2018-03-01T21:47:08.694Z,99911.56
2018-03-01T21:49:37.480Z,99900.81
2018-03-01T21:52:06.274Z,99905.71
2018-03-01T21:54:35.367Z,99903.78
2018-03-01T21:57:03.989Z,99901.83
2018-03-01T21:59:33.452Z,99905.69
2018-03-01T22:02:02.138Z,99905.47
2018-03-01T22:04:30.823Z,99911.44
2018-03-01T22:06:59.459Z,99906.95
2018-03-01T22:09:28.404Z,99904.77
2018-03-01T22:11:56.993Z,99898.91
2018-03-01T22:14:25.556Z,99889.32
2018-03-01T22:16:54.504Z,99894.26
2018-03-01T22:19:23.919Z,99880.39
2018-03-01T22:21:53.368Z,99879.55
2018-03-01T22:24:22.262Z,99867.64
2018-03-01T22:26:51.147Z,99877.65
2018-03-01T22:29:19.793Z,99864.07
2018-03-01T22:31:48.785Z,99858.28
2018-03-01T22:34:17.510Z,99852.83
2018-03-01T22:36:46.146Z,99841.61
2018-03-01T22:39:15.688Z,99831.45
2018-03-01T22:41:44.392Z,99840.09
2018-03-01T22:44:13.082Z,99840.86
2018-03-01T22:46:41.763Z,99835.83
2018-03-01T22:49:10.453Z,99840.84
2018-03-01T22:51:39.019Z,99834.47
2018-03-01T22:54:07.769Z,99827.26
2018-03-01T22:56:37.330Z,99818.62
2018-03-01T22:59:05.899Z,99813.03
2018-03-01T23:01:34.801Z,99812.94
2018-03-01T23:04:03.567Z,99814.94
2018-03-01T23:06:32.269Z,99813.91
2018-03-01T23:09:00.975Z,99812.12
2018-03-01T23:11:29.709Z,99812.52
2018-03-01T23:13:58.363Z,99807.39
2018-03-01T23:16:27.174Z,99805.97
2018-03-01T23:18:55.875Z,99808.73
2018-03-01T23:21:24.453Z,99813.72
2018-03-01T23:23:53.202Z,99801.28
2018-03-01T23:26:21.933Z,99803.80
2018-03-01T23:28:50.619Z,99792.30
2018-03-01T23:31:19.659Z,99785.73
2018-03-01T23:33:49.110Z,99775.48
2018-03-01T23:36:17.797Z,99784.92
2018-03-01T23:38:46.648Z,99785.98
2018-03-01T23:41:15.994Z,99785.70
2018-03-01T23:43:45.547Z,99789.31
2018-03-01T23:46:15.106Z,99789.13
2018-03-01T23:48:43.728Z,99792.97
2018-03-01T23:51:13.192Z,99798.95
2018-03-01T23:53:42.185Z,99795.77
2018-03-01T23:56:11.079Z,99788.09
2018-03-01T23:58:39.764Z,99793.90
